Terminal Aerodrome Forecast
Issued by NWS

Home | Current Version | Previous Version | Graphics & Text | Print | Product List | Glossary On
Versions: 1 2 3 4 5 6 7 8 9 10 11 12 13
000
FTUS41 KCLE 290539
TAFFDY
TAF
KFDY 290539Z 2906/3006 12005KT P6SM SKC
     FM291200 17006KT P6SM SCT100
     FM291600 20010KT P6SM SCT040 BKN200
     FM292000 24010KT P6SM VCTS SCT040CB OVC200
     FM300000 26006KT P6SM BKN200=

USA.gov is the U.S. government's official web portal to all federal, state and local government web resources and services.